sensor_id;sensor_type;location;lat;lon;timestamp;P1;durP1;ratioP1;P2;durP2;ratioP2
13753;SDS011;6948;51.216;6.778;2022-11-27T00:00:26;11.97;;;5.30;;
13753;SDS011;6948;51.216;6.778;2022-11-27T00:02:52;11.83;;;4.97;;
13753;SDS011;6948;51.216;6.778;2022-11-27T00:05:18;12.20;;;4.90;;
13753;SDS011;6948;51.216;6.778;2022-11-27T00:07:44;15.10;;;4.93;;
13753;SDS011;6948;51.216;6.778;2022-11-27T00:10:10;12.53;;;4.67;;
13753;SDS011;6948;51.216;6.778;2022-11-27T00:12:36;13.07;;;5.60;;
13753;SDS011;6948;51.216;6.778;2022-11-27T00:15:02;10.20;;;4.57;;
13753;SDS011;6948;51.216;6.778;2022-11-27T00:17:29;12.97;;;5.00;;
13753;SDS011;6948;51.216;6.778;2022-11-27T00:19:55;11.97;;;4.83;;
13753;SDS011;6948;51.216;6.778;2022-11-27T00:22:21;8.57;;;5.00;;
13753;SDS011;6948;51.216;6.778;2022-11-27T00:24:47;10.87;;;4.63;;
13753;SDS011;6948;51.216;6.778;2022-11-27T00:27:13;13.57;;;4.73;;
13753;SDS011;6948;51.216;6.778;2022-11-27T00:29:39;15.23;;;4.73;;
13753;SDS011;6948;51.216;6.778;2022-11-27T00:32:05;12.27;;;4.67;;
13753;SDS011;6948;51.216;6.778;2022-11-27T00:34:32;10.77;;;4.73;;
13753;SDS011;6948;51.216;6.778;2022-11-27T00:36:58;10.87;;;4.43;;
13753;SDS011;6948;51.216;6.778;2022-11-27T00:39:24;10.20;;;4.40;;
13753;SDS011;6948;51.216;6.778;2022-11-27T00:41:51;11.53;;;5.07;;
13753;SDS011;6948;51.216;6.778;2022-11-27T00:44:18;9.63;;;4.20;;
13753;SDS011;6948;51.216;6.778;2022-11-27T00:46:44;14.13;;;4.47;;
13753;SDS011;6948;51.216;6.778;2022-11-27T00:49:11;9.93;;;4.13;;
13753;SDS011;6948;51.216;6.778;2022-11-27T00:51:38;11.50;;;3.80;;
13753;SDS011;6948;51.216;6.778;2022-11-27T00:54:04;10.03;;;4.40;;
13753;SDS011;6948;51.216;6.778;2022-11-27T00:56:31;11.07;;;4.13;;
13753;SDS011;6948;51.216;6.778;2022-11-27T00:58:58;8.73;;;4.10;;
13753;SDS011;6948;51.216;6.778;2022-11-27T01:01:25;11.30;;;4.13;;
13753;SDS011;6948;51.216;6.778;2022-11-27T01:03:52;12.97;;;4.43;;
13753;SDS011;6948;51.216;6.778;2022-11-27T01:06:18;10.90;;;4.27;;
13753;SDS011;6948;51.216;6.778;2022-11-27T01:08:45;10.23;;;4.30;;
13753;SDS011;6948;51.216;6.778;2022-11-27T01:11:12;11.23;;;3.83;;
13753;SDS011;6948;51.216;6.778;2022-11-27T01:13:39;9.93;;;4.30;;
13753;SDS011;6948;51.216;6.778;2022-11-27T01:16:06;10.93;;;3.90;;
13753;SDS011;6948;51.216;6.778;2022-11-27T01:18:33;8.60;;;3.80;;
13753;SDS011;6948;51.216;6.778;2022-11-27T01:21:00;9.87;;;3.97;;
13753;SDS011;6948;51.216;6.778;2022-11-27T01:23:26;9.03;;;3.93;;
13753;SDS011;6948;51.216;6.778;2022-11-27T01:25:52;11.43;;;3.90;;
13753;SDS011;6948;51.216;6.778;2022-11-27T01:28:19;6.47;;;3.63;;
13753;SDS011;6948;51.216;6.778;2022-11-27T01:30:45;8.93;;;3.63;;
13753;SDS011;6948;51.216;6.778;2022-11-27T01:33:11;9.63;;;3.90;;
13753;SDS011;6948;51.216;6.778;2022-11-27T01:35:37;9.10;;;3.67;;
13753;SDS011;6948;51.216;6.778;2022-11-27T01:38:03;7.40;;;3.90;;
13753;SDS011;6948;51.216;6.778;2022-11-27T01:40:29;7.87;;;4.20;;
13753;SDS011;6948;51.216;6.778;2022-11-27T01:42:55;9.50;;;3.80;;
13753;SDS011;6948;51.216;6.778;2022-11-27T01:45:21;7.50;;;3.33;;
13753;SDS011;6948;51.216;6.778;2022-11-27T01:50:29;9.70;;;4.17;;
13753;SDS011;6948;51.216;6.778;2022-11-27T01:52:58;8.93;;;3.67;;
13753;SDS011;6948;51.216;6.778;2022-11-27T01:55:35;8.90;;;3.57;;
13753;SDS011;6948;51.216;6.778;2022-11-27T01:58:09;7.90;;;3.70;;
13753;SDS011;6948;51.216;6.778;2022-11-27T02:00:35;7.87;;;4.00;;
13753;SDS011;6948;51.216;6.778;2022-11-27T02:03:02;8.10;;;3.73;;
13753;SDS011;6948;51.216;6.778;2022-11-27T02:05:29;8.60;;;3.40;;
13753;SDS011;6948;51.216;6.778;2022-11-27T02:07:56;10.03;;;3.60;;
13753;SDS011;6948;51.216;6.778;2022-11-27T02:10:24;7.57;;;3.90;;
13753;SDS011;6948;51.216;6.778;2022-11-27T02:13:02;7.93;;;3.40;;
13753;SDS011;6948;51.216;6.778;2022-11-27T02:18:11;12.50;;;4.03;;
13753;SDS011;6948;51.216;6.778;2022-11-27T02:20:42;8.73;;;3.67;;
13753;SDS011;6948;51.216;6.778;2022-11-27T02:26:05;10.40;;;4.13;;
13753;SDS011;6948;51.216;6.778;2022-11-27T02:28:40;9.60;;;4.50;;
13753;SDS011;6948;51.216;6.778;2022-11-27T02:31:10;8.27;;;3.93;;
13753;SDS011;6948;51.216;6.778;2022-11-27T02:33:40;8.97;;;4.23;;
13753;SDS011;6948;51.216;6.778;2022-11-27T02:36:08;7.73;;;3.77;;
13753;SDS011;6948;51.216;6.778;2022-11-27T02:38:45;8.70;;;4.60;;
13753;SDS011;6948;51.216;6.778;2022-11-27T02:43:49;8.47;;;4.57;;
13753;SDS011;6948;51.216;6.778;2022-11-27T02:46:16;9.03;;;4.60;;
13753;SDS011;6948;51.216;6.778;2022-11-27T02:48:44;8.67;;;4.57;;
13753;SDS011;6948;51.216;6.778;2022-11-27T02:51:12;9.40;;;5.00;;
13753;SDS011;6948;51.216;6.778;2022-11-27T02:53:42;11.10;;;5.00;;
13753;SDS011;6948;51.216;6.778;2022-11-27T02:56:11;9.37;;;5.00;;
13753;SDS011;6948;51.216;6.778;2022-11-27T02:58:37;10.13;;;5.23;;
13753;SDS011;6948;51.216;6.778;2022-11-27T03:01:04;12.27;;;5.33;;
13753;SDS011;6948;51.216;6.778;2022-11-27T03:03:33;11.97;;;6.30;;
13753;SDS011;6948;51.216;6.778;2022-11-27T03:06:01;11.53;;;6.43;;
13753;SDS011;6948;51.216;6.778;2022-11-27T03:11:07;10.37;;;6.23;;
13753;SDS011;6948;51.216;6.778;2022-11-27T03:13:35;13.07;;;6.73;;
13753;SDS011;6948;51.216;6.778;2022-11-27T03:21:34;11.23;;;7.13;;
13753;SDS011;6948;51.216;6.778;2022-11-27T03:24:02;11.97;;;7.93;;
13753;SDS011;6948;51.216;6.778;2022-11-27T03:26:29;12.43;;;7.77;;
13753;SDS011;6948;51.216;6.778;2022-11-27T03:28:55;15.60;;;8.70;;
13753;SDS011;6948;51.216;6.778;2022-11-27T03:31:22;17.50;;;9.10;;
13753;SDS011;6948;51.216;6.778;2022-11-27T03:33:49;14.47;;;9.03;;
13753;SDS011;6948;51.216;6.778;2022-11-27T03:36:16;14.93;;;8.50;;
13753;SDS011;6948;51.216;6.778;2022-11-27T03:38:43;13.83;;;8.63;;
13753;SDS011;6948;51.216;6.778;2022-11-27T03:41:13;18.80;;;9.07;;
13753;SDS011;6948;51.216;6.778;2022-11-27T03:43:48;12.90;;;8.30;;
13753;SDS011;6948;51.216;6.778;2022-11-27T03:49:07;15.13;;;9.43;;
13753;SDS011;6948;51.216;6.778;2022-11-27T03:51:41;17.60;;;10.37;;
13753;SDS011;6948;51.216;6.778;2022-11-27T03:54:15;18.07;;;10.33;;
13753;SDS011;6948;51.216;6.778;2022-11-27T03:56:50;17.23;;;10.23;;
13753;SDS011;6948;51.216;6.778;2022-11-27T03:59:22;15.17;;;10.03;;
13753;SDS011;6948;51.216;6.778;2022-11-27T04:01:50;20.50;;;10.80;;
13753;SDS011;6948;51.216;6.778;2022-11-27T04:04:16;19.90;;;10.50;;
13753;SDS011;6948;51.216;6.778;2022-11-27T04:06:42;18.40;;;11.07;;
13753;SDS011;6948;51.216;6.778;2022-11-27T04:09:08;17.97;;;10.50;;
13753;SDS011;6948;51.216;6.778;2022-11-27T04:11:34;15.33;;;11.07;;
13753;SDS011;6948;51.216;6.778;2022-11-27T04:14:00;16.70;;;11.37;;
13753;SDS011;6948;51.216;6.778;2022-11-27T04:16:27;15.77;;;10.73;;
13753;SDS011;6948;51.216;6.778;2022-11-27T04:18:52;18.80;;;11.13;;
13753;SDS011;6948;51.216;6.778;2022-11-27T04:21:19;17.63;;;11.63;;
13753;SDS011;6948;51.216;6.778;2022-11-27T04:23:45;17.57;;;11.03;;
13753;SDS011;6948;51.216;6.778;2022-11-27T04:26:11;16.53;;;11.10;;
13753;SDS011;6948;51.216;6.778;2022-11-27T04:28:37;15.80;;;10.80;;
13753;SDS011;6948;51.216;6.778;2022-11-27T04:31:03;16.37;;;10.93;;
13753;SDS011;6948;51.216;6.778;2022-11-27T04:33:29;14.67;;;10.87;;
13753;SDS011;6948;51.216;6.778;2022-11-27T04:35:55;21.00;;;11.73;;
13753;SDS011;6948;51.216;6.778;2022-11-27T04:38:21;19.50;;;11.13;;
13753;SDS011;6948;51.216;6.778;2022-11-27T04:40:47;17.50;;;10.70;;
13753;SDS011;6948;51.216;6.778;2022-11-27T04:43:13;18.00;;;10.90;;
13753;SDS011;6948;51.216;6.778;2022-11-27T04:45:39;23.10;;;10.73;;
13753;SDS011;6948;51.216;6.778;2022-11-27T04:48:05;18.13;;;11.30;;
13753;SDS011;6948;51.216;6.778;2022-11-27T04:50:31;16.27;;;10.40;;
13753;SDS011;6948;51.216;6.778;2022-11-27T04:52:57;18.93;;;11.13;;
13753;SDS011;6948;51.216;6.778;2022-11-27T04:55:24;15.57;;;10.93;;
13753;SDS011;6948;51.216;6.778;2022-11-27T04:57:49;16.53;;;10.77;;
13753;SDS011;6948;51.216;6.778;2022-11-27T05:00:16;16.63;;;10.93;;
13753;SDS011;6948;51.216;6.778;2022-11-27T05:02:42;18.10;;;10.70;;
13753;SDS011;6948;51.216;6.778;2022-11-27T05:05:08;15.97;;;10.80;;
13753;SDS011;6948;51.216;6.778;2022-11-27T05:07:34;16.23;;;10.67;;
13753;SDS011;6948;51.216;6.778;2022-11-27T05:10:00;14.73;;;9.87;;
13753;SDS011;6948;51.216;6.778;2022-11-27T05:12:26;14.93;;;9.80;;
13753;SDS011;6948;51.216;6.778;2022-11-27T05:14:52;13.73;;;10.10;;
13753;SDS011;6948;51.216;6.778;2022-11-27T05:17:18;16.90;;;9.87;;
13753;SDS011;6948;51.216;6.778;2022-11-27T05:19:44;16.63;;;10.13;;
13753;SDS011;6948;51.216;6.778;2022-11-27T05:22:10;15.27;;;10.03;;
13753;SDS011;6948;51.216;6.778;2022-11-27T05:24:36;13.93;;;9.17;;
13753;SDS011;6948;51.216;6.778;2022-11-27T05:27:02;18.50;;;10.07;;
13753;SDS011;6948;51.216;6.778;2022-11-27T05:29:28;16.60;;;10.27;;
13753;SDS011;6948;51.216;6.778;2022-11-27T05:31:54;14.73;;;9.30;;
13753;SDS011;6948;51.216;6.778;2022-11-27T05:34:20;17.87;;;9.23;;
13753;SDS011;6948;51.216;6.778;2022-11-27T05:36:46;14.27;;;8.97;;
13753;SDS011;6948;51.216;6.778;2022-11-27T05:39:12;13.70;;;7.97;;
13753;SDS011;6948;51.216;6.778;2022-11-27T05:41:40;14.27;;;8.60;;
13753;SDS011;6948;51.216;6.778;2022-11-27T05:44:08;13.30;;;8.27;;
13753;SDS011;6948;51.216;6.778;2022-11-27T05:46:35;13.83;;;7.97;;
13753;SDS011;6948;51.216;6.778;2022-11-27T05:49:01;15.37;;;8.73;;
13753;SDS011;6948;51.216;6.778;2022-11-27T05:51:27;12.47;;;8.33;;
13753;SDS011;6948;51.216;6.778;2022-11-27T05:53:53;13.20;;;7.97;;
13753;SDS011;6948;51.216;6.778;2022-11-27T05:56:19;13.33;;;8.20;;
13753;SDS011;6948;51.216;6.778;2022-11-27T05:58:45;12.20;;;8.13;;
13753;SDS011;6948;51.216;6.778;2022-11-27T06:01:12;12.33;;;8.17;;
13753;SDS011;6948;51.216;6.778;2022-11-27T06:03:38;13.73;;;8.17;;
13753;SDS011;6948;51.216;6.778;2022-11-27T06:06:05;15.00;;;7.87;;
13753;SDS011;6948;51.216;6.778;2022-11-27T06:08:32;14.47;;;8.23;;
13753;SDS011;6948;51.216;6.778;2022-11-27T06:10:58;14.93;;;7.13;;
13753;SDS011;6948;51.216;6.778;2022-11-27T06:13:24;13.13;;;7.77;;
13753;SDS011;6948;51.216;6.778;2022-11-27T06:15:50;11.27;;;7.33;;
13753;SDS011;6948;51.216;6.778;2022-11-27T06:18:16;12.40;;;7.37;;
13753;SDS011;6948;51.216;6.778;2022-11-27T06:20:42;13.83;;;7.93;;
13753;SDS011;6948;51.216;6.778;2022-11-27T06:23:08;12.13;;;6.93;;
13753;SDS011;6948;51.216;6.778;2022-11-27T06:25:34;11.07;;;6.97;;
13753;SDS011;6948;51.216;6.778;2022-11-27T06:28:00;11.60;;;6.83;;
13753;SDS011;6948;51.216;6.778;2022-11-27T06:30:26;11.40;;;7.13;;
13753;SDS011;6948;51.216;6.778;2022-11-27T06:32:52;17.83;;;7.30;;
13753;SDS011;6948;51.216;6.778;2022-11-27T06:35:18;12.63;;;7.87;;
13753;SDS011;6948;51.216;6.778;2022-11-27T06:37:44;12.53;;;7.83;;
13753;SDS011;6948;51.216;6.778;2022-11-27T06:40:10;10.47;;;6.80;;
13753;SDS011;6948;51.216;6.778;2022-11-27T06:42:36;11.47;;;7.30;;
13753;SDS011;6948;51.216;6.778;2022-11-27T06:45:02;11.20;;;6.93;;
13753;SDS011;6948;51.216;6.778;2022-11-27T06:47:28;12.40;;;7.30;;
13753;SDS011;6948;51.216;6.778;2022-11-27T06:49:54;10.90;;;7.07;;
13753;SDS011;6948;51.216;6.778;2022-11-27T06:52:20;12.30;;;7.63;;
13753;SDS011;6948;51.216;6.778;2022-11-27T06:54:46;13.87;;;8.20;;
13753;SDS011;6948;51.216;6.778;2022-11-27T06:57:12;12.87;;;7.83;;
13753;SDS011;6948;51.216;6.778;2022-11-27T06:59:38;12.97;;;7.53;;
13753;SDS011;6948;51.216;6.778;2022-11-27T07:02:04;10.83;;;6.50;;
13753;SDS011;6948;51.216;6.778;2022-11-27T07:04:30;10.40;;;6.83;;
13753;SDS011;6948;51.216;6.778;2022-11-27T07:06:56;12.73;;;7.23;;
13753;SDS011;6948;51.216;6.778;2022-11-27T07:09:22;11.13;;;7.10;;
13753;SDS011;6948;51.216;6.778;2022-11-27T07:11:48;12.77;;;7.83;;
13753;SDS011;6948;51.216;6.778;2022-11-27T07:14:14;13.03;;;7.80;;
13753;SDS011;6948;51.216;6.778;2022-11-27T07:16:40;10.97;;;7.93;;
13753;SDS011;6948;51.216;6.778;2022-11-27T07:19:06;10.93;;;6.73;;
13753;SDS011;6948;51.216;6.778;2022-11-27T07:21:34;10.97;;;7.07;;
13753;SDS011;6948;51.216;6.778;2022-11-27T07:24:00;10.40;;;6.83;;
13753;SDS011;6948;51.216;6.778;2022-11-27T07:26:27;9.97;;;7.13;;
13753;SDS011;6948;51.216;6.778;2022-11-27T07:28:54;10.07;;;7.33;;
13753;SDS011;6948;51.216;6.778;2022-11-27T07:31:21;12.37;;;7.57;;
13753;SDS011;6948;51.216;6.778;2022-11-27T07:33:48;12.70;;;7.30;;
13753;SDS011;6948;51.216;6.778;2022-11-27T07:36:17;12.07;;;6.97;;
13753;SDS011;6948;51.216;6.778;2022-11-27T07:38:43;10.23;;;6.90;;
13753;SDS011;6948;51.216;6.778;2022-11-27T07:41:10;12.67;;;7.10;;
13753;SDS011;6948;51.216;6.778;2022-11-27T07:43:36;14.23;;;7.00;;
13753;SDS011;6948;51.216;6.778;2022-11-27T07:46:03;10.60;;;6.93;;
13753;SDS011;6948;51.216;6.778;2022-11-27T07:48:29;11.63;;;6.27;;
13753;SDS011;6948;51.216;6.778;2022-11-27T07:50:55;11.90;;;7.30;;
13753;SDS011;6948;51.216;6.778;2022-11-27T07:53:21;10.07;;;6.60;;
13753;SDS011;6948;51.216;6.778;2022-11-27T07:55:47;10.20;;;6.67;;
13753;SDS011;6948;51.216;6.778;2022-11-27T07:58:13;11.00;;;7.03;;
13753;SDS011;6948;51.216;6.778;2022-11-27T08:00:39;11.37;;;6.53;;
13753;SDS011;6948;51.216;6.778;2022-11-27T08:03:05;10.10;;;6.17;;
13753;SDS011;6948;51.216;6.778;2022-11-27T08:05:33;11.17;;;6.80;;
13753;SDS011;6948;51.216;6.778;2022-11-27T08:08:00;9.00;;;6.57;;
13753;SDS011;6948;51.216;6.778;2022-11-27T08:10:28;13.50;;;6.50;;
13753;SDS011;6948;51.216;6.778;2022-11-27T08:12:54;9.17;;;6.60;;
13753;SDS011;6948;51.216;6.778;2022-11-27T08:15:19;13.13;;;6.47;;
13753;SDS011;6948;51.216;6.778;2022-11-27T08:17:45;11.37;;;6.90;;
13753;SDS011;6948;51.216;6.778;2022-11-27T08:20:11;11.53;;;6.23;;
13753;SDS011;6948;51.216;6.778;2022-11-27T08:22:38;9.77;;;5.73;;
13753;SDS011;6948;51.216;6.778;2022-11-27T08:25:04;11.13;;;6.20;;
13753;SDS011;6948;51.216;6.778;2022-11-27T08:27:30;10.00;;;6.03;;
13753;SDS011;6948;51.216;6.778;2022-11-27T08:29:57;9.20;;;6.00;;
13753;SDS011;6948;51.216;6.778;2022-11-27T08:32:23;10.60;;;5.90;;
13753;SDS011;6948;51.216;6.778;2022-11-27T08:34:49;9.10;;;6.50;;
13753;SDS011;6948;51.216;6.778;2022-11-27T08:37:15;11.73;;;6.10;;
13753;SDS011;6948;51.216;6.778;2022-11-27T08:39:41;10.47;;;6.37;;
13753;SDS011;6948;51.216;6.778;2022-11-27T08:42:07;8.87;;;6.17;;
13753;SDS011;6948;51.216;6.778;2022-11-27T08:44:33;8.53;;;5.73;;
13753;SDS011;6948;51.216;6.778;2022-11-27T08:46:59;9.97;;;6.27;;
13753;SDS011;6948;51.216;6.778;2022-11-27T08:49:25;9.63;;;5.93;;
13753;SDS011;6948;51.216;6.778;2022-11-27T08:51:51;8.53;;;5.53;;
13753;SDS011;6948;51.216;6.778;2022-11-27T08:54:17;9.97;;;6.13;;
13753;SDS011;6948;51.216;6.778;2022-11-27T08:56:43;9.20;;;5.90;;
13753;SDS011;6948;51.216;6.778;2022-11-27T08:59:09;11.70;;;6.60;;
13753;SDS011;6948;51.216;6.778;2022-11-27T09:01:35;8.27;;;5.83;;
13753;SDS011;6948;51.216;6.778;2022-11-27T09:04:01;10.70;;;5.50;;
13753;SDS011;6948;51.216;6.778;2022-11-27T09:06:28;8.17;;;5.53;;
13753;SDS011;6948;51.216;6.778;2022-11-27T09:08:55;11.00;;;5.67;;
13753;SDS011;6948;51.216;6.778;2022-11-27T09:11:22;8.60;;;5.43;;
13753;SDS011;6948;51.216;6.778;2022-11-27T09:13:48;11.07;;;7.20;;
13753;SDS011;6948;51.216;6.778;2022-11-27T09:16:15;7.83;;;5.40;;
13753;SDS011;6948;51.216;6.778;2022-11-27T09:18:42;11.00;;;5.53;;
13753;SDS011;6948;51.216;6.778;2022-11-27T09:21:10;8.33;;;5.20;;
13753;SDS011;6948;51.216;6.778;2022-11-27T09:23:36;13.87;;;9.37;;
13753;SDS011;6948;51.216;6.778;2022-11-27T09:26:04;10.57;;;5.60;;
13753;SDS011;6948;51.216;6.778;2022-11-27T09:28:31;8.03;;;5.57;;
13753;SDS011;6948;51.216;6.778;2022-11-27T09:30:58;12.53;;;6.53;;
13753;SDS011;6948;51.216;6.778;2022-11-27T09:33:25;8.27;;;4.87;;
13753;SDS011;6948;51.216;6.778;2022-11-27T09:35:51;10.80;;;5.63;;
13753;SDS011;6948;51.216;6.778;2022-11-27T09:38:17;8.57;;;5.00;;
13753;SDS011;6948;51.216;6.778;2022-11-27T09:40:47;9.73;;;6.73;;
13753;SDS011;6948;51.216;6.778;2022-11-27T09:43:13;8.13;;;5.10;;
13753;SDS011;6948;51.216;6.778;2022-11-27T09:45:42;7.73;;;5.13;;
13753;SDS011;6948;51.216;6.778;2022-11-27T09:48:11;8.50;;;4.77;;
13753;SDS011;6948;51.216;6.778;2022-11-27T09:50:40;7.73;;;5.03;;
13753;SDS011;6948;51.216;6.778;2022-11-27T09:55:54;8.43;;;5.23;;
13753;SDS011;6948;51.216;6.778;2022-11-27T09:58:38;7.77;;;4.63;;
13753;SDS011;6948;51.216;6.778;2022-11-27T10:01:13;7.43;;;4.63;;
13753;SDS011;6948;51.216;6.778;2022-11-27T10:03:40;10.77;;;5.23;;
13753;SDS011;6948;51.216;6.778;2022-11-27T10:11:35;9.43;;;5.50;;
13753;SDS011;6948;51.216;6.778;2022-11-27T10:16:54;7.50;;;5.57;;
13753;SDS011;6948;51.216;6.778;2022-11-27T10:19:27;10.87;;;5.60;;
13753;SDS011;6948;51.216;6.778;2022-11-27T10:21:57;11.47;;;6.00;;
13753;SDS011;6948;51.216;6.778;2022-11-27T10:27:10;10.40;;;5.40;;
13753;SDS011;6948;51.216;6.778;2022-11-27T10:29:38;9.87;;;5.63;;
13753;SDS011;6948;51.216;6.778;2022-11-27T10:32:14;7.73;;;5.30;;
13753;SDS011;6948;51.216;6.778;2022-11-27T10:34:42;8.93;;;5.70;;
13753;SDS011;6948;51.216;6.778;2022-11-27T10:37:14;8.30;;;5.70;;
13753;SDS011;6948;51.216;6.778;2022-11-27T10:39:46;11.53;;;6.00;;
13753;SDS011;6948;51.216;6.778;2022-11-27T10:42:14;9.60;;;5.60;;
13753;SDS011;6948;51.216;6.778;2022-11-27T10:44:47;7.60;;;5.30;;
13753;SDS011;6948;51.216;6.778;2022-11-27T10:47:15;9.90;;;5.63;;
13753;SDS011;6948;51.216;6.778;2022-11-27T10:49:41;11.00;;;6.40;;
13753;SDS011;6948;51.216;6.778;2022-11-27T10:52:11;8.37;;;5.80;;
13753;SDS011;6948;51.216;6.778;2022-11-27T10:54:37;9.33;;;5.77;;
13753;SDS011;6948;51.216;6.778;2022-11-27T10:57:07;10.73;;;6.07;;
13753;SDS011;6948;51.216;6.778;2022-11-27T10:59:42;9.93;;;6.10;;
13753;SDS011;6948;51.216;6.778;2022-11-27T11:04:57;7.77;;;6.03;;
13753;SDS011;6948;51.216;6.778;2022-11-27T11:07:33;9.00;;;5.50;;
13753;SDS011;6948;51.216;6.778;2022-11-27T11:09:59;8.87;;;6.03;;
13753;SDS011;6948;51.216;6.778;2022-11-27T11:12:25;9.10;;;6.27;;
13753;SDS011;6948;51.216;6.778;2022-11-27T11:14:53;10.97;;;6.30;;
13753;SDS011;6948;51.216;6.778;2022-11-27T11:17:24;9.70;;;5.87;;
13753;SDS011;6948;51.216;6.778;2022-11-27T11:19:50;10.10;;;6.27;;
13753;SDS011;6948;51.216;6.778;2022-11-27T11:22:16;12.37;;;5.97;;
13753;SDS011;6948;51.216;6.778;2022-11-27T11:24:45;9.27;;;5.87;;
13753;SDS011;6948;51.216;6.778;2022-11-27T11:27:13;8.53;;;6.13;;
13753;SDS011;6948;51.216;6.778;2022-11-27T11:29:45;7.93;;;5.77;;
13753;SDS011;6948;51.216;6.778;2022-11-27T11:34:57;7.50;;;5.90;;
13753;SDS011;6948;51.216;6.778;2022-11-27T11:37:25;10.13;;;5.90;;
13753;SDS011;6948;51.216;6.778;2022-11-27T11:39:53;10.37;;;6.03;;
13753;SDS011;6948;51.216;6.778;2022-11-27T11:42:21;9.53;;;5.90;;
13753;SDS011;6948;51.216;6.778;2022-11-27T11:44:49;11.07;;;6.20;;
13753;SDS011;6948;51.216;6.778;2022-11-27T11:47:16;10.73;;;6.00;;
13753;SDS011;6948;51.216;6.778;2022-11-27T11:49:47;10.03;;;5.80;;
13753;SDS011;6948;51.216;6.778;2022-11-27T11:54:57;9.23;;;5.50;;
13753;SDS011;6948;51.216;6.778;2022-11-27T11:57:32;7.63;;;5.70;;
13753;SDS011;6948;51.216;6.778;2022-11-27T12:00:04;7.30;;;5.50;;
13753;SDS011;6948;51.216;6.778;2022-11-27T12:02:38;12.03;;;5.60;;
13753;SDS011;6948;51.216;6.778;2022-11-27T12:13:29;8.50;;;5.70;;
13753;SDS011;6948;51.216;6.778;2022-11-27T12:19:00;7.73;;;5.23;;
13753;SDS011;6948;51.216;6.778;2022-11-27T12:21:33;8.40;;;5.33;;
13753;SDS011;6948;51.216;6.778;2022-11-27T12:26:51;7.87;;;5.20;;
13753;SDS011;6948;51.216;6.778;2022-11-27T12:29:24;6.87;;;4.80;;
13753;SDS011;6948;51.216;6.778;2022-11-27T12:37:33;7.90;;;4.83;;
13753;SDS011;6948;51.216;6.778;2022-11-27T12:40:03;6.93;;;4.97;;
13753;SDS011;6948;51.216;6.778;2022-11-27T12:45:14;7.90;;;4.70;;
13753;SDS011;6948;51.216;6.778;2022-11-27T12:47:43;8.23;;;5.10;;
13753;SDS011;6948;51.216;6.778;2022-11-27T12:52:57;7.00;;;5.03;;
13753;SDS011;6948;51.216;6.778;2022-11-27T12:55:26;6.70;;;4.50;;
13753;SDS011;6948;51.216;6.778;2022-11-27T12:57:58;7.33;;;4.33;;
13753;SDS011;6948;51.216;6.778;2022-11-27T13:00:25;8.70;;;4.47;;
13753;SDS011;6948;51.216;6.778;2022-11-27T13:05:47;8.10;;;4.63;;
13753;SDS011;6948;51.216;6.778;2022-11-27T13:08:17;8.07;;;4.57;;
13753;SDS011;6948;51.216;6.778;2022-11-27T13:10:49;8.23;;;4.77;;
13753;SDS011;6948;51.216;6.778;2022-11-27T13:13:34;7.60;;;4.70;;
13753;SDS011;6948;51.216;6.778;2022-11-27T13:16:04;7.40;;;4.53;;
13753;SDS011;6948;51.216;6.778;2022-11-27T13:18:35;6.33;;;4.37;;
13753;SDS011;6948;51.216;6.778;2022-11-27T13:21:04;6.87;;;4.23;;
13753;SDS011;6948;51.216;6.778;2022-11-27T13:23:31;7.30;;;4.10;;
13753;SDS011;6948;51.216;6.778;2022-11-27T13:25:57;6.93;;;4.00;;
13753;SDS011;6948;51.216;6.778;2022-11-27T13:28:26;5.03;;;4.20;;
13753;SDS011;6948;51.216;6.778;2022-11-27T13:30:56;7.00;;;4.23;;
13753;SDS011;6948;51.216;6.778;2022-11-27T13:33:27;7.37;;;4.60;;
13753;SDS011;6948;51.216;6.778;2022-11-27T13:35:57;8.77;;;4.73;;
13753;SDS011;6948;51.216;6.778;2022-11-27T13:38:25;4.80;;;4.17;;
13753;SDS011;6948;51.216;6.778;2022-11-27T13:40:52;6.10;;;4.10;;
13753;SDS011;6948;51.216;6.778;2022-11-27T13:43:21;7.53;;;4.37;;
13753;SDS011;6948;51.216;6.778;2022-11-27T13:45:58;6.70;;;4.97;;
13753;SDS011;6948;51.216;6.778;2022-11-27T13:48:29;6.80;;;4.83;;
13753;SDS011;6948;51.216;6.778;2022-11-27T13:50:56;5.17;;;4.00;;
13753;SDS011;6948;51.216;6.778;2022-11-27T13:53:31;8.07;;;4.20;;
13753;SDS011;6948;51.216;6.778;2022-11-27T13:55:58;6.07;;;4.77;;
13753;SDS011;6948;51.216;6.778;2022-11-27T13:58:29;6.40;;;4.70;;
13753;SDS011;6948;51.216;6.778;2022-11-27T14:00:55;6.77;;;4.70;;
13753;SDS011;6948;51.216;6.778;2022-11-27T14:03:23;6.37;;;3.90;;
13753;SDS011;6948;51.216;6.778;2022-11-27T14:05:56;6.13;;;4.00;;
13753;SDS011;6948;51.216;6.778;2022-11-27T14:11:05;5.87;;;4.23;;
13753;SDS011;6948;51.216;6.778;2022-11-27T14:13:37;7.13;;;4.07;;
13753;SDS011;6948;51.216;6.778;2022-11-27T14:16:21;6.43;;;3.90;;
13753;SDS011;6948;51.216;6.778;2022-11-27T14:18:50;4.27;;;3.43;;
13753;SDS011;6948;51.216;6.778;2022-11-27T14:27:06;6.60;;;3.87;;
13753;SDS011;6948;51.216;6.778;2022-11-27T14:29:40;5.50;;;3.90;;
13753;SDS011;6948;51.216;6.778;2022-11-27T14:32:13;5.87;;;3.73;;
13753;SDS011;6948;51.216;6.778;2022-11-27T14:34:40;4.73;;;3.43;;
13753;SDS011;6948;51.216;6.778;2022-11-27T14:37:18;6.17;;;3.73;;
13753;SDS011;6948;51.216;6.778;2022-11-27T14:39:53;6.63;;;4.10;;
13753;SDS011;6948;51.216;6.778;2022-11-27T14:42:26;5.43;;;3.60;;
13753;SDS011;6948;51.216;6.778;2022-11-27T14:45:00;8.30;;;3.90;;
13753;SDS011;6948;51.216;6.778;2022-11-27T14:47:30;6.07;;;3.63;;
13753;SDS011;6948;51.216;6.778;2022-11-27T14:49:59;5.50;;;3.20;;
13753;SDS011;6948;51.216;6.778;2022-11-27T14:52:26;5.53;;;3.67;;
13753;SDS011;6948;51.216;6.778;2022-11-27T14:54:52;5.87;;;3.67;;
13753;SDS011;6948;51.216;6.778;2022-11-27T14:57:23;4.27;;;3.53;;
13753;SDS011;6948;51.216;6.778;2022-11-27T15:02:39;4.40;;;3.23;;
13753;SDS011;6948;51.216;6.778;2022-11-27T15:05:05;6.40;;;3.50;;
13753;SDS011;6948;51.216;6.778;2022-11-27T15:07:37;5.83;;;3.40;;
13753;SDS011;6948;51.216;6.778;2022-11-27T15:10:16;5.60;;;3.53;;
13753;SDS011;6948;51.216;6.778;2022-11-27T15:12:45;6.07;;;3.80;;
13753;SDS011;6948;51.216;6.778;2022-11-27T15:18:05;6.07;;;3.80;;
13753;SDS011;6948;51.216;6.778;2022-11-27T15:20:40;6.73;;;3.90;;
13753;SDS011;6948;51.216;6.778;2022-11-27T15:23:15;4.97;;;3.30;;
13753;SDS011;6948;51.216;6.778;2022-11-27T15:25:44;5.53;;;3.47;;
13753;SDS011;6948;51.216;6.778;2022-11-27T15:28:23;6.97;;;3.63;;
13753;SDS011;6948;51.216;6.778;2022-11-27T15:30:51;5.63;;;3.87;;
13753;SDS011;6948;51.216;6.778;2022-11-27T15:33:25;6.57;;;3.77;;
13753;SDS011;6948;51.216;6.778;2022-11-27T15:35:52;5.63;;;3.70;;
13753;SDS011;6948;51.216;6.778;2022-11-27T15:38:18;5.37;;;3.50;;
13753;SDS011;6948;51.216;6.778;2022-11-27T15:40:45;6.47;;;4.20;;
13753;SDS011;6948;51.216;6.778;2022-11-27T15:43:20;7.80;;;4.17;;
13753;SDS011;6948;51.216;6.778;2022-11-27T15:45:46;7.70;;;4.20;;
13753;SDS011;6948;51.216;6.778;2022-11-27T15:48:13;6.37;;;4.17;;
13753;SDS011;6948;51.216;6.778;2022-11-27T15:50:40;5.60;;;3.90;;
13753;SDS011;6948;51.216;6.778;2022-11-27T15:53:06;5.17;;;3.53;;
13753;SDS011;6948;51.216;6.778;2022-11-27T15:55:32;6.70;;;4.07;;
13753;SDS011;6948;51.216;6.778;2022-11-27T15:57:58;5.30;;;3.80;;
13753;SDS011;6948;51.216;6.778;2022-11-27T16:00:24;7.27;;;4.13;;
13753;SDS011;6948;51.216;6.778;2022-11-27T16:02:51;7.10;;;4.07;;
13753;SDS011;6948;51.216;6.778;2022-11-27T16:05:17;6.93;;;4.10;;
13753;SDS011;6948;51.216;6.778;2022-11-27T16:07:44;6.57;;;4.27;;
13753;SDS011;6948;51.216;6.778;2022-11-27T16:10:10;4.57;;;4.10;;
13753;SDS011;6948;51.216;6.778;2022-11-27T16:12:36;5.80;;;4.50;;
13753;SDS011;6948;51.216;6.778;2022-11-27T16:15:05;4.83;;;4.00;;
13753;SDS011;6948;51.216;6.778;2022-11-27T16:17:31;7.10;;;4.20;;
13753;SDS011;6948;51.216;6.778;2022-11-27T16:19:57;9.03;;;4.43;;
13753;SDS011;6948;51.216;6.778;2022-11-27T16:22:23;7.83;;;4.40;;